sensor_id;sensor_type;location;lat;lon;timestamp;pressure;altitude;pressure_sealevel;temperature;humidity
25498;BME280;13406;53.380;7.226;2024-01-30T00:02:00;103257.28;;;4.48;100.00
25498;BME280;13406;53.380;7.226;2024-01-30T00:04:25;103304.94;;;4.51;100.00
25498;BME280;13406;53.380;7.226;2024-01-30T00:06:51;103295.38;;;4.75;100.00
25498;BME280;13406;53.380;7.226;2024-01-30T00:09:18;103531.22;;;6.12;100.00
25498;BME280;13406;53.380;7.226;2024-01-30T00:11:43;103222.38;;;4.13;100.00
25498;BME280;13406;53.380;7.226;2024-01-30T00:14:11;103232.06;;;4.41;100.00
25498;BME280;13406;53.380;7.226;2024-01-30T00:16:37;103052.38;;;3.17;100.00
25498;BME280;13406;53.380;7.226;2024-01-30T00:19:02;103292.03;;;4.45;100.00
25498;BME280;13406;53.380;7.226;2024-01-30T00:21:31;103347.78;;;4.73;100.00
25498;BME280;13406;53.380;7.226;2024-01-30T00:23:59;103275.66;;;4.65;100.00
25498;BME280;13406;53.380;7.226;2024-01-30T00:26:24;103178.66;;;4.04;100.00
25498;BME280;13406;53.380;7.226;2024-01-30T00:28:50;103228.50;;;4.27;100.00
25498;BME280;13406;53.380;7.226;2024-01-30T00:31:20;103456.72;;;5.16;100.00
25498;BME280;13406;53.380;7.226;2024-01-30T00:33:45;103394.28;;;4.95;100.00
25498;BME280;13406;53.380;7.226;2024-01-30T00:36:16;103240.59;;;4.04;100.00
25498;BME280;13406;53.380;7.226;2024-01-30T00:38:41;103434.94;;;5.51;100.00
25498;BME280;13406;53.380;7.226;2024-01-30T00:41:08;103405.66;;;4.97;100.00
25498;BME280;13406;53.380;7.226;2024-01-30T00:43:34;103080.59;;;3.18;100.00
25498;BME280;13406;53.380;7.226;2024-01-30T00:46:00;103189.50;;;3.87;100.00
25498;BME280;13406;53.380;7.226;2024-01-30T00:48:25;103099.06;;;3.20;100.00
25498;BME280;13406;53.380;7.226;2024-01-30T00:50:51;103094.34;;;2.96;100.00
25498;BME280;13406;53.380;7.226;2024-01-30T00:53:16;103173.91;;;3.39;100.00
25498;BME280;13406;53.380;7.226;2024-01-30T00:55:43;103327.06;;;4.51;100.00
25498;BME280;13406;53.380;7.226;2024-01-30T00:58:08;103241.56;;;4.03;100.00
25498;BME280;13406;53.380;7.226;2024-01-30T01:00:34;103256.34;;;3.93;100.00
25498;BME280;13406;53.380;7.226;2024-01-30T01:02:59;103177.22;;;3.43;100.00
25498;BME280;13406;53.380;7.226;2024-01-30T01:05:30;103324.53;;;4.63;100.00
25498;BME280;13406;53.380;7.226;2024-01-30T01:07:58;103326.13;;;4.38;100.00
25498;BME280;13406;53.380;7.226;2024-01-30T01:10:23;103098.88;;;3.08;100.00
25498;BME280;13406;53.380;7.226;2024-01-30T01:12:49;103045.38;;;2.73;100.00
25498;BME280;13406;53.380;7.226;2024-01-30T01:15:15;103279.53;;;4.33;100.00
25498;BME280;13406;53.380;7.226;2024-01-30T01:17:42;103116.47;;;2.81;100.00
25498;BME280;13406;53.380;7.226;2024-01-30T01:20:08;103472.25;;;5.10;100.00
25498;BME280;13406;53.380;7.226;2024-01-30T01:22:35;103312.59;;;4.14;100.00
25498;BME280;13406;53.380;7.226;2024-01-30T01:25:01;103103.13;;;3.25;100.00
25498;BME280;13406;53.380;7.226;2024-01-30T01:27:27;103539.56;;;5.66;100.00
25498;BME280;13406;53.380;7.226;2024-01-30T01:29:54;103145.31;;;3.15;100.00
25498;BME280;13406;53.380;7.226;2024-01-30T01:32:20;103166.59;;;3.71;100.00
25498;BME280;13406;53.380;7.226;2024-01-30T01:34:46;103152.78;;;3.52;100.00
25498;BME280;13406;53.380;7.226;2024-01-30T01:37:12;103159.59;;;3.56;100.00
25498;BME280;13406;53.380;7.226;2024-01-30T01:39:37;103138.84;;;3.48;100.00
25498;BME280;13406;53.380;7.226;2024-01-30T01:42:03;103274.00;;;4.08;100.00
25498;BME280;13406;53.380;7.226;2024-01-30T01:44:31;103177.59;;;3.65;100.00
25498;BME280;13406;53.380;7.226;2024-01-30T01:47:01;103223.94;;;3.88;100.00
25498;BME280;13406;53.380;7.226;2024-01-30T01:49:28;103022.28;;;2.89;100.00
25498;BME280;13406;53.380;7.226;2024-01-30T01:51:55;103474.16;;;5.35;100.00
25498;BME280;13406;53.380;7.226;2024-01-30T01:54:28;103241.81;;;4.13;100.00
25498;BME280;13406;53.380;7.226;2024-01-30T01:56:57;103266.75;;;4.25;100.00
25498;BME280;13406;53.380;7.226;2024-01-30T01:59:25;103326.09;;;4.52;100.00
25498;BME280;13406;53.380;7.226;2024-01-30T02:01:52;102970.00;;;2.48;100.00
25498;BME280;13406;53.380;7.226;2024-01-30T02:04:18;103007.97;;;2.92;100.00
25498;BME280;13406;53.380;7.226;2024-01-30T02:06:46;103063.75;;;3.19;100.00
25498;BME280;13406;53.380;7.226;2024-01-30T02:09:11;103068.94;;;3.21;100.00
25498;BME280;13406;53.380;7.226;2024-01-30T02:11:39;103135.53;;;3.59;100.00
25498;BME280;13406;53.380;7.226;2024-01-30T02:14:09;103370.88;;;5.27;100.00
25498;BME280;13406;53.380;7.226;2024-01-30T02:16:37;102986.84;;;3.05;100.00
25498;BME280;13406;53.380;7.226;2024-01-30T02:19:05;103090.88;;;3.66;100.00
25498;BME280;13406;53.380;7.226;2024-01-30T02:21:32;103302.84;;;5.10;100.00
25498;BME280;13406;53.380;7.226;2024-01-30T02:24:04;103338.00;;;5.28;100.00
25498;BME280;13406;53.380;7.226;2024-01-30T02:26:30;103164.22;;;4.22;100.00
25498;BME280;13406;53.380;7.226;2024-01-30T02:28:58;103129.34;;;4.27;100.00
25498;BME280;13406;53.380;7.226;2024-01-30T02:31:25;103014.94;;;3.63;100.00
25498;BME280;13406;53.380;7.226;2024-01-30T02:33:50;103156.91;;;4.66;100.00
25498;BME280;13406;53.380;7.226;2024-01-30T02:36:16;103070.81;;;4.01;100.00
25498;BME280;13406;53.380;7.226;2024-01-30T02:38:41;103179.34;;;4.74;100.00
25498;BME280;13406;53.380;7.226;2024-01-30T02:43:40;103079.97;;;4.63;100.00
25498;BME280;13406;53.380;7.226;2024-01-30T02:46:06;103073.31;;;4.70;100.00
25498;BME280;13406;53.380;7.226;2024-01-30T02:48:31;103218.25;;;5.28;100.00
25498;BME280;13406;53.380;7.226;2024-01-30T02:50:57;103241.47;;;5.39;100.00
25498;BME280;13406;53.380;7.226;2024-01-30T02:53:23;103157.38;;;4.98;100.00
25498;BME280;13406;53.380;7.226;2024-01-30T02:55:48;102964.38;;;3.92;100.00
25498;BME280;13406;53.380;7.226;2024-01-30T02:58:14;103243.91;;;5.68;100.00
25498;BME280;13406;53.380;7.226;2024-01-30T03:00:39;103233.88;;;5.71;100.00
25498;BME280;13406;53.380;7.226;2024-01-30T03:03:05;103110.00;;;5.16;100.00
25498;BME280;13406;53.380;7.226;2024-01-30T03:05:30;102984.84;;;4.17;100.00
25498;BME280;13406;53.380;7.226;2024-01-30T03:07:56;103218.34;;;5.52;100.00
25498;BME280;13406;53.380;7.226;2024-01-30T03:10:21;103004.91;;;4.21;100.00
25498;BME280;13406;53.380;7.226;2024-01-30T03:12:46;102961.38;;;3.71;100.00
25498;BME280;13406;53.380;7.226;2024-01-30T03:15:12;103111.81;;;5.03;100.00
25498;BME280;13406;53.380;7.226;2024-01-30T03:17:37;102849.53;;;3.10;100.00
25498;BME280;13406;53.380;7.226;2024-01-30T03:20:04;103239.09;;;5.60;100.00
25498;BME280;13406;53.380;7.226;2024-01-30T03:22:30;103197.06;;;5.39;100.00
25498;BME280;13406;53.380;7.226;2024-01-30T03:24:55;102843.78;;;3.30;100.00
25498;BME280;13406;53.380;7.226;2024-01-30T03:27:20;103241.66;;;5.49;100.00
25498;BME280;13406;53.380;7.226;2024-01-30T03:29:46;103024.97;;;4.25;100.00
25498;BME280;13406;53.380;7.226;2024-01-30T03:32:11;103074.16;;;4.58;100.00
25498;BME280;13406;53.380;7.226;2024-01-30T03:34:37;102920.69;;;3.70;100.00
25498;BME280;13406;53.380;7.226;2024-01-30T03:37:02;103083.41;;;4.90;100.00
25498;BME280;13406;53.380;7.226;2024-01-30T03:39:28;102983.34;;;4.25;100.00
25498;BME280;13406;53.380;7.226;2024-01-30T03:41:53;103207.69;;;5.39;100.00
25498;BME280;13406;53.380;7.226;2024-01-30T03:44:19;103197.91;;;5.53;100.00
25498;BME280;13406;53.380;7.226;2024-01-30T03:46:44;102843.91;;;3.67;100.00
25498;BME280;13406;53.380;7.226;2024-01-30T03:49:10;102890.56;;;3.71;100.00
25498;BME280;13406;53.380;7.226;2024-01-30T03:51:36;103148.63;;;5.47;100.00
25498;BME280;13406;53.380;7.226;2024-01-30T03:54:01;103055.97;;;4.77;100.00
25498;BME280;13406;53.380;7.226;2024-01-30T03:56:26;102874.97;;;3.79;100.00
25498;BME280;13406;53.380;7.226;2024-01-30T03:58:52;103074.47;;;4.79;100.00
25498;BME280;13406;53.380;7.226;2024-01-30T04:01:17;102947.94;;;4.25;100.00
25498;BME280;13406;53.380;7.226;2024-01-30T04:03:43;103160.22;;;5.46;100.00
25498;BME280;13406;53.380;7.226;2024-01-30T04:06:09;102885.13;;;3.73;100.00
25498;BME280;13406;53.380;7.226;2024-01-30T04:08:35;103095.22;;;4.99;100.00
25498;BME280;13406;53.380;7.226;2024-01-30T04:11:05;103073.63;;;4.91;100.00
25498;BME280;13406;53.380;7.226;2024-01-30T04:13:31;103223.66;;;5.52;100.00
25498;BME280;13406;53.380;7.226;2024-01-30T04:15:59;103420.19;;;6.75;100.00
25498;BME280;13406;53.380;7.226;2024-01-30T04:18:27;102944.13;;;3.91;100.00
25498;BME280;13406;53.380;7.226;2024-01-30T04:20:52;103216.72;;;5.75;100.00
25498;BME280;13406;53.380;7.226;2024-01-30T04:23:18;103197.16;;;5.38;100.00
25498;BME280;13406;53.380;7.226;2024-01-30T04:25:43;102863.13;;;3.58;100.00
25498;BME280;13406;53.380;7.226;2024-01-30T04:28:09;103201.31;;;5.42;100.00
25498;BME280;13406;53.380;7.226;2024-01-30T04:30:37;103218.25;;;5.54;100.00
25498;BME280;13406;53.380;7.226;2024-01-30T04:33:03;102914.09;;;3.76;100.00
25498;BME280;13406;53.380;7.226;2024-01-30T04:35:31;103153.31;;;5.31;100.00
25498;BME280;13406;53.380;7.226;2024-01-30T04:37:56;103159.38;;;5.20;100.00
25498;BME280;13406;53.380;7.226;2024-01-30T04:40:22;102928.38;;;4.13;100.00
25498;BME280;13406;53.380;7.226;2024-01-30T04:42:47;102892.38;;;3.96;100.00
25498;BME280;13406;53.380;7.226;2024-01-30T04:45:13;102806.47;;;3.59;100.00
25498;BME280;13406;53.380;7.226;2024-01-30T04:47:38;103070.22;;;5.02;100.00
25498;BME280;13406;53.380;7.226;2024-01-30T04:50:06;103062.13;;;4.65;100.00
25498;BME280;13406;53.380;7.226;2024-01-30T04:52:32;103042.78;;;4.75;100.00
25498;BME280;13406;53.380;7.226;2024-01-30T04:54:57;103133.84;;;5.05;100.00
25498;BME280;13406;53.380;7.226;2024-01-30T04:57:23;103051.47;;;4.39;100.00
25498;BME280;13406;53.380;7.226;2024-01-30T04:59:48;103109.06;;;5.04;100.00
25498;BME280;13406;53.380;7.226;2024-01-30T05:02:13;103149.69;;;5.32;100.00
25498;BME280;13406;53.380;7.226;2024-01-30T05:04:40;103031.09;;;4.52;100.00
25498;BME280;13406;53.380;7.226;2024-01-30T05:07:06;103094.69;;;4.81;100.00
25498;BME280;13406;53.380;7.226;2024-01-30T05:09:31;103169.59;;;5.13;100.00
25498;BME280;13406;53.380;7.226;2024-01-30T05:11:57;102957.94;;;4.08;100.00
25498;BME280;13406;53.380;7.226;2024-01-30T05:14:23;102867.56;;;3.45;100.00
25498;BME280;13406;53.380;7.226;2024-01-30T05:16:49;103104.16;;;5.24;100.00
25498;BME280;13406;53.380;7.226;2024-01-30T05:19:14;103036.81;;;4.85;100.00
25498;BME280;13406;53.380;7.226;2024-01-30T05:21:41;102978.66;;;4.42;100.00
25498;BME280;13406;53.380;7.226;2024-01-30T05:24:06;103021.00;;;4.58;100.00
25498;BME280;13406;53.380;7.226;2024-01-30T05:26:32;103173.06;;;5.52;100.00
25498;BME280;13406;53.380;7.226;2024-01-30T05:28:58;102907.69;;;4.05;100.00
25498;BME280;13406;53.380;7.226;2024-01-30T05:31:23;103020.13;;;4.70;100.00
25498;BME280;13406;53.380;7.226;2024-01-30T05:33:51;103106.59;;;5.27;100.00
25498;BME280;13406;53.380;7.226;2024-01-30T05:36:16;103187.25;;;5.65;100.00
25498;BME280;13406;53.380;7.226;2024-01-30T05:38:42;103018.00;;;4.88;100.00
25498;BME280;13406;53.380;7.226;2024-01-30T05:41:08;103204.59;;;5.71;100.00
25498;BME280;13406;53.380;7.226;2024-01-30T05:43:33;103119.38;;;5.21;100.00
25498;BME280;13406;53.380;7.226;2024-01-30T05:45:59;103157.97;;;5.89;100.00
25498;BME280;13406;53.380;7.226;2024-01-30T05:48:24;102860.53;;;4.09;100.00
25498;BME280;13406;53.380;7.226;2024-01-30T05:50:50;102861.16;;;4.13;100.00
25498;BME280;13406;53.380;7.226;2024-01-30T05:53:15;102945.59;;;4.59;100.00
25498;BME280;13406;53.380;7.226;2024-01-30T05:55:41;102965.47;;;4.79;100.00
25498;BME280;13406;53.380;7.226;2024-01-30T05:58:06;102959.31;;;4.52;100.00
25498;BME280;13406;53.380;7.226;2024-01-30T06:00:32;103194.22;;;5.92;100.00
25498;BME280;13406;53.380;7.226;2024-01-30T06:02:57;103067.72;;;5.37;100.00
25498;BME280;13406;53.380;7.226;2024-01-30T06:05:23;103184.63;;;5.89;100.00
25498;BME280;13406;53.380;7.226;2024-01-30T06:07:48;102980.34;;;4.81;100.00
25498;BME280;13406;53.380;7.226;2024-01-30T06:10:14;103185.50;;;5.77;100.00
25498;BME280;13406;53.380;7.226;2024-01-30T06:12:39;103205.63;;;5.81;100.00
25498;BME280;13406;53.380;7.226;2024-01-30T06:15:05;102981.00;;;4.59;100.00
25498;BME280;13406;53.380;7.226;2024-01-30T06:17:32;102830.13;;;3.88;100.00
25498;BME280;13406;53.380;7.226;2024-01-30T06:19:57;103185.19;;;5.69;100.00
25498;BME280;13406;53.380;7.226;2024-01-30T06:22:23;103174.47;;;5.58;100.00
25498;BME280;13406;53.380;7.226;2024-01-30T06:24:48;102841.59;;;3.75;100.00
25498;BME280;13406;53.380;7.226;2024-01-30T06:27:17;102893.44;;;4.19;100.00
25498;BME280;13406;53.380;7.226;2024-01-30T06:29:45;103100.66;;;5.60;100.00
25498;BME280;13406;53.380;7.226;2024-01-30T06:32:11;103027.25;;;4.82;100.00
25498;BME280;13406;53.380;7.226;2024-01-30T06:34:36;103177.84;;;5.73;100.00
25498;BME280;13406;53.380;7.226;2024-01-30T06:37:03;102856.47;;;3.65;100.00
25498;BME280;13406;53.380;7.226;2024-01-30T06:39:29;103370.19;;;6.90;100.00
25498;BME280;13406;53.380;7.226;2024-01-30T06:41:54;103199.09;;;6.11;100.00
25498;BME280;13406;53.380;7.226;2024-01-30T06:44:20;103005.56;;;4.63;100.00
25498;BME280;13406;53.380;7.226;2024-01-30T06:46:45;102869.34;;;3.97;100.00
25498;BME280;13406;53.380;7.226;2024-01-30T06:49:11;102886.22;;;3.96;100.00
25498;BME280;13406;53.380;7.226;2024-01-30T06:51:36;103019.50;;;4.66;100.00
25498;BME280;13406;53.380;7.226;2024-01-30T06:54:02;102919.28;;;4.17;100.00
25498;BME280;13406;53.380;7.226;2024-01-30T06:56:28;103209.38;;;5.66;100.00
25498;BME280;13406;53.380;7.226;2024-01-30T06:58:53;103035.34;;;4.81;100.00
25498;BME280;13406;53.380;7.226;2024-01-30T07:01:18;102959.22;;;4.28;100.00
25498;BME280;13406;53.380;7.226;2024-01-30T07:03:44;103379.28;;;7.11;100.00
25498;BME280;13406;53.380;7.226;2024-01-30T07:06:10;103189.94;;;5.89;100.00
25498;BME280;13406;53.380;7.226;2024-01-30T07:08:38;102986.00;;;4.64;100.00
25498;BME280;13406;53.380;7.226;2024-01-30T07:11:05;103104.03;;;5.25;100.00
25498;BME280;13406;53.380;7.226;2024-01-30T07:13:31;103171.84;;;5.95;100.00
25498;BME280;13406;53.380;7.226;2024-01-30T07:15:57;102984.16;;;4.90;100.00
25498;BME280;13406;53.380;7.226;2024-01-30T07:18:22;103025.75;;;5.04;100.00
25498;BME280;13406;53.380;7.226;2024-01-30T07:20:48;102982.38;;;4.78;100.00
25498;BME280;13406;53.380;7.226;2024-01-30T07:23:15;103240.97;;;6.09;100.00
25498;BME280;13406;53.380;7.226;2024-01-30T07:25:45;103042.13;;;5.10;100.00
25498;BME280;13406;53.380;7.226;2024-01-30T07:28:11;102993.97;;;4.89;100.00
25498;BME280;13406;53.380;7.226;2024-01-30T07:30:41;103246.09;;;6.12;100.00
25498;BME280;13406;53.380;7.226;2024-01-30T07:33:07;103101.91;;;5.30;100.00
25498;BME280;13406;53.380;7.226;2024-01-30T07:35:33;103232.38;;;6.05;100.00
25498;BME280;13406;53.380;7.226;2024-01-30T07:37:59;103133.66;;;5.70;100.00
25498;BME280;13406;53.380;7.226;2024-01-30T07:40:24;103128.69;;;5.40;100.00
25498;BME280;13406;53.380;7.226;2024-01-30T07:42:50;103197.44;;;5.97;100.00
25498;BME280;13406;53.380;7.226;2024-01-30T07:45:15;103169.03;;;6.09;100.00
25498;BME280;13406;53.380;7.226;2024-01-30T07:47:41;102912.56;;;4.24;100.00
25498;BME280;13406;53.380;7.226;2024-01-30T07:50:07;103182.47;;;6.07;100.00
25498;BME280;13406;53.380;7.226;2024-01-30T07:52:33;103201.59;;;6.25;100.00
25498;BME280;13406;53.380;7.226;2024-01-30T07:54:58;102912.34;;;4.40;100.00
25498;BME280;13406;53.380;7.226;2024-01-30T07:57:24;103219.75;;;6.20;100.00
25498;BME280;13406;53.380;7.226;2024-01-30T07:59:50;103220.22;;;6.01;100.00
25498;BME280;13406;53.380;7.226;2024-01-30T08:02:15;103198.19;;;5.99;100.00
25498;BME280;13406;53.380;7.226;2024-01-30T08:04:41;103243.91;;;6.30;100.00
25498;BME280;13406;53.380;7.226;2024-01-30T08:07:06;103206.81;;;6.27;100.00
25498;BME280;13406;53.380;7.226;2024-01-30T08:09:32;103174.81;;;6.03;100.00
25498;BME280;13406;53.380;7.226;2024-01-30T08:11:57;102904.56;;;4.50;100.00
25498;BME280;13406;53.380;7.226;2024-01-30T08:14:23;103246.84;;;6.38;100.00
25498;BME280;13406;53.380;7.226;2024-01-30T08:16:48;103159.13;;;5.61;100.00
25498;BME280;13406;53.380;7.226;2024-01-30T08:19:17;103414.22;;;7.32;100.00
25498;BME280;13406;53.380;7.226;2024-01-30T08:21:42;103162.78;;;5.97;100.00
25498;BME280;13406;53.380;7.226;2024-01-30T08:24:08;102930.41;;;4.48;100.00
25498;BME280;13406;53.380;7.226;2024-01-30T08:26:34;103036.59;;;5.50;100.00
25498;BME280;13406;53.380;7.226;2024-01-30T08:29:00;103129.97;;;5.97;100.00
25498;BME280;13406;53.380;7.226;2024-01-30T08:31:26;103047.47;;;5.47;100.00
25498;BME280;13406;53.380;7.226;2024-01-30T08:33:51;103210.78;;;6.21;100.00
25498;BME280;13406;53.380;7.226;2024-01-30T08:36:17;103163.94;;;6.06;100.00
25498;BME280;13406;53.380;7.226;2024-01-30T08:38:43;103141.56;;;6.08;100.00
25498;BME280;13406;53.380;7.226;2024-01-30T08:41:08;103227.59;;;6.34;100.00
25498;BME280;13406;53.380;7.226;2024-01-30T08:43:34;103043.38;;;5.54;100.00
25498;BME280;13406;53.380;7.226;2024-01-30T08:46:00;102799.66;;;3.93;100.00
25498;BME280;13406;53.380;7.226;2024-01-30T08:48:27;103190.34;;;6.09;100.00
25498;BME280;13406;53.380;7.226;2024-01-30T08:50:53;103064.38;;;5.46;100.00
25498;BME280;13406;53.380;7.226;2024-01-30T08:53:18;103037.50;;;5.25;100.00
25498;BME280;13406;53.380;7.226;2024-01-30T08:55:44;103202.31;;;6.27;100.00
25498;BME280;13406;53.380;7.226;2024-01-30T08:58:10;103028.69;;;5.25;100.00
25498;BME280;13406;53.380;7.226;2024-01-30T09:00:35;103267.19;;;6.52;100.00
25498;BME280;13406;53.380;7.226;2024-01-30T09:03:01;103230.13;;;6.36;100.00
25498;BME280;13406;53.380;7.226;2024-01-30T09:05:26;103069.47;;;5.49;100.00
25498;BME280;13406;53.380;7.226;2024-01-30T09:07:52;103140.16;;;5.66;100.00
25498;BME280;13406;53.380;7.226;2024-01-30T09:10:17;102992.28;;;4.75;100.00
25498;BME280;13406;53.380;7.226;2024-01-30T09:12:43;103293.78;;;6.65;100.00
25498;BME280;13406;53.380;7.226;2024-01-30T09:15:08;102988.00;;;4.86;100.00
25498;BME280;13406;53.380;7.226;2024-01-30T09:17:34;103233.91;;;6.21;100.00
25498;BME280;13406;53.380;7.226;2024-01-30T09:19:59;103344.59;;;6.87;100.00
25498;BME280;13406;53.380;7.226;2024-01-30T09:22:25;103244.03;;;6.52;100.00
25498;BME280;13406;53.380;7.226;2024-01-30T09:24:51;103167.81;;;6.26;100.00
25498;BME280;13406;53.380;7.226;2024-01-30T09:27:16;102984.25;;;5.01;100.00
25498;BME280;13406;53.380;7.226;2024-01-30T09:29:41;103184.41;;;6.29;100.00
25498;BME280;13406;53.380;7.226;2024-01-30T09:32:07;103393.34;;;7.61;100.00
25498;BME280;13406;53.380;7.226;2024-01-30T09:34:34;102825.78;;;4.12;100.00
25498;BME280;13406;53.380;7.226;2024-01-30T09:36:59;102947.94;;;4.63;100.00
25498;BME280;13406;53.380;7.226;2024-01-30T09:39:25;103136.72;;;5.77;100.00
25498;BME280;13406;53.380;7.226;2024-01-30T09:44:43;103281.53;;;6.86;100.00
25498;BME280;13406;53.380;7.226;2024-01-30T09:47:09;103185.94;;;6.45;100.00
25498;BME280;13406;53.380;7.226;2024-01-30T09:49:35;103121.25;;;5.95;100.00
25498;BME280;13406;53.380;7.226;2024-01-30T09:52:05;102977.00;;;5.03;100.00
25498;BME280;13406;53.380;7.226;2024-01-30T09:54:32;103054.34;;;5.62;100.00
25498;BME280;13406;53.380;7.226;2024-01-30T09:56:58;103240.16;;;6.81;100.00
25498;BME280;13406;53.380;7.226;2024-01-30T09:59:24;103260.16;;;6.75;100.00
25498;BME280;13406;53.380;7.226;2024-01-30T10:01:50;102976.44;;;5.24;100.00
25498;BME280;13406;53.380;7.226;2024-01-30T10:04:16;103160.47;;;6.41;100.00
25498;BME280;13406;53.380;7.226;2024-01-30T10:06:42;103232.44;;;6.65;100.00
25498;BME280;13406;53.380;7.226;2024-01-30T10:09:07;103223.38;;;6.67;100.00
25498;BME280;13406;53.380;7.226;2024-01-30T10:11:33;102976.91;;;5.41;100.00
25498;BME280;13406;53.380;7.226;2024-01-30T10:14:00;102923.53;;;4.95;100.00
25498;BME280;13406;53.380;7.226;2024-01-30T10:16:25;103005.28;;;5.54;100.00
25498;BME280;13406;53.380;7.226;2024-01-30T10:18:51;102921.88;;;5.18;100.00
25498;BME280;13406;53.380;7.226;2024-01-30T10:21:16;103207.28;;;7.15;100.00
25498;BME280;13406;53.380;7.226;2024-01-30T10:23:43;103149.16;;;6.61;100.00
25498;BME280;13406;53.380;7.226;2024-01-30T10:26:09;103083.44;;;6.14;100.00
25498;BME280;13406;53.380;7.226;2024-01-30T10:28:35;103250.69;;;7.06;100.00
25498;BME280;13406;53.380;7.226;2024-01-30T10:31:00;103020.63;;;5.98;100.00
25498;BME280;13406;53.380;7.226;2024-01-30T10:33:29;103128.50;;;6.41;100.00
25498;BME280;13406;53.380;7.226;2024-01-30T10:36:04;103398.44;;;8.33;100.00
25498;BME280;13406;53.380;7.226;2024-01-30T10:38:31;103243.81;;;7.37;100.00
25498;BME280;13406;53.380;7.226;2024-01-30T10:40:57;102886.56;;;5.51;100.00
25498;BME280;13406;53.380;7.226;2024-01-30T10:43:24;103016.25;;;6.32;100.00
25498;BME280;13406;53.380;7.226;2024-01-30T10:45:57;103205.00;;;7.33;100.00
25498;BME280;13406;53.380;7.226;2024-01-30T10:48:30;103250.03;;;7.38;100.00
25498;BME280;13406;53.380;7.226;2024-01-30T10:50:59;102891.09;;;5.38;100.00
25498;BME280;13406;53.380;7.226;2024-01-30T10:53:25;103202.91;;;7.25;100.00
25498;BME280;13406;53.380;7.226;2024-01-30T10:55:53;103190.31;;;7.28;100.00
25498;BME280;13406;53.380;7.226;2024-01-30T10:58:20;103238.16;;;7.64;100.00
25498;BME280;13406;53.380;7.226;2024-01-30T11:00:46;103228.81;;;7.59;100.00
25498;BME280;13406;53.380;7.226;2024-01-30T11:03:12;103264.16;;;7.74;100.00
25498;BME280;13406;53.380;7.226;2024-01-30T11:05:40;103239.13;;;7.52;100.00
25498;BME280;13406;53.380;7.226;2024-01-30T11:08:15;103227.56;;;7.52;100.00
25498;BME280;13406;53.380;7.226;2024-01-30T11:10:48;103205.34;;;7.40;100.00
25498;BME280;13406;53.380;7.226;2024-01-30T11:13:13;103254.81;;;7.79;100.00
25498;BME280;13406;53.380;7.226;2024-01-30T11:15:40;103060.91;;;6.53;100.00
25498;BME280;13406;53.380;7.226;2024-01-30T11:18:05;103001.84;;;6.35;100.00
25498;BME280;13406;53.380;7.226;2024-01-30T11:20:32;103216.66;;;7.66;100.00
25498;BME280;13406;53.380;7.226;2024-01-30T11:22:58;103076.59;;;6.69;100.00
25498;BME280;13406;53.380;7.226;2024-01-30T11:25:25;103261.59;;;7.72;100.00
25498;BME280;13406;53.380;7.226;2024-01-30T11:27:52;103125.25;;;7.06;100.00
25498;BME280;13406;53.380;7.226;2024-01-30T11:30:29;103239.13;;;7.63;100.00
25498;BME280;13406;53.380;7.226;2024-01-30T11:33:03;103417.88;;;8.80;100.00
25498;BME280;13406;53.380;7.226;2024-01-30T11:35:34;103244.84;;;7.70;100.00
25498;BME280;13406;53.380;7.226;2024-01-30T11:38:00;103001.41;;;6.52;100.00
25498;BME280;13406;53.380;7.226;2024-01-30T11:40:30;103132.78;;;7.12;100.00
25498;BME280;13406;53.380;7.226;2024-01-30T11:42:58;103226.38;;;7.89;100.00
25498;BME280;13406;53.380;7.226;2024-01-30T11:45:24;103219.34;;;7.66;100.00
25498;BME280;13406;53.380;7.226;2024-01-30T11:47:50;103167.25;;;7.27;100.00
25498;BME280;13406;53.380;7.226;2024-01-30T11:50:15;103197.38;;;7.62;100.00
25498;BME280;13406;53.380;7.226;2024-01-30T11:52:41;102958.94;;;6.27;100.00
25498;BME280;13406;53.380;7.226;2024-01-30T11:55:09;103265.00;;;7.74;100.00
25498;BME280;13406;53.380;7.226;2024-01-30T11:57:35;102869.19;;;5.70;100.00
25498;BME280;13406;53.380;7.226;2024-01-30T12:00:03;103263.66;;;7.91;100.00
25498;BME280;13406;53.380;7.226;2024-01-30T12:02:42;103112.88;;;7.28;100.00
25498;BME280;13406;53.380;7.226;2024-01-30T12:05:07;102911.56;;;6.30;100.00
25498;BME280;13406;53.380;7.226;2024-01-30T12:07:33;103129.66;;;7.52;100.00
25498;BME280;13406;53.380;7.226;2024-01-30T12:09:59;103019.63;;;6.92;100.00
25498;BME280;13406;53.380;7.226;2024-01-30T12:12:28;103034.78;;;7.03;100.00
25498;BME280;13406;53.380;7.226;2024-01-30T12:14:56;103237.00;;;8.23;100.00
25498;BME280;13406;53.380;7.226;2024-01-30T12:17:33;103231.56;;;8.25;100.00
25498;BME280;13406;53.380;7.226;2024-01-30T12:22:46;103004.19;;;6.85;100.00
25498;BME280;13406;53.380;7.226;2024-01-30T12:25:17;103229.66;;;8.04;100.00
25498;BME280;13406;53.380;7.226;2024-01-30T12:27:43;103150.13;;;7.52;100.00
25498;BME280;13406;53.380;7.226;2024-01-30T12:30:11;103276.28;;;8.45;100.00
25498;BME280;13406;53.380;7.226;2024-01-30T12:32:40;103053.44;;;6.81;100.00
25498;BME280;13406;53.380;7.226;2024-01-30T12:35:10;103247.22;;;8.29;100.00
25498;BME280;13406;53.380;7.226;2024-01-30T12:37:36;103138.50;;;7.64;100.00
25498;BME280;13406;53.380;7.226;2024-01-30T12:40:01;103300.19;;;8.58;100.00
25498;BME280;13406;53.380;7.226;2024-01-30T12:42:27;103318.94;;;8.47;100.00
25498;BME280;13406;53.380;7.226;2024-01-30T12:44:53;103311.53;;;8.39;100.00
25498;BME280;13406;53.380;7.226;2024-01-30T12:47:21;103344.09;;;8.55;100.00
25498;BME280;13406;53.380;7.226;2024-01-30T12:49:47;103195.44;;;7.76;100.00
25498;BME280;13406;53.380;7.226;2024-01-30T12:52:16;103209.63;;;7.76;100.00
25498;BME280;13406;53.380;7.226;2024-01-30T12:54:41;103276.44;;;7.87;100.00